Time;durP1;ratioP1;P1;durP2;ratioP2;P2;SDS_P1;SDS_P2;PMS_P1;PMS_P2;Temp;Humidity;BMP_temperature;BMP_pressure;BME280_temperature;BME280_humidity;BME280_pressure;Samples;Min_cycle;Max_cycle;Signal;HPM_P1;HPM_P2
2023/01/23 00:00:50;;;;;;;3.35;1.63;;;;;;;;;;5088824;28;20071;-74
2023/01/23 00:03:21;;;;;;;3.78;1.70;;;;;;;;;;5089975;28;20390;-73
2023/01/23 00:06:03;;;;;;;5.43;1.95;;;;;;;;;;5089543;28;20055;-78
2023/01/23 00:08:35;;;;;;;2.30;1.85;;;;;;;;;;5089615;28;20040;-74
2023/01/23 00:11:08;;;;;;;3.92;1.63;;;;;;;;;;5089335;28;20498;-74
2023/01/23 00:13:39;;;;;;;2.95;1.80;;;;;;;;;;5088631;28;20756;-74
2023/01/23 00:16:31;;;;;;;2.20;1.70;;;;;;;;;;5079360;28;20430;-73
2023/01/23 00:19:01;;;;;;;3.67;1.83;;;;;;;;;;5076251;28;20041;-73
2023/01/23 00:21:32;;;;;;;1.95;1.60;;;;;;;;;;5068264;28;20056;-76
2023/01/23 00:24:04;;;;;;;1.80;1.45;;;;;;;;;;5069015;28;20522;-74
2023/01/23 00:26:35;;;;;;;3.47;2.17;;;;;;;;;;5067910;28;20059;-72
2023/01/23 00:29:10;;;;;;;3.22;1.77;;;;;;;;;;5068836;28;20048;-73
2023/01/23 00:31:41;;;;;;;4.25;1.80;;;;;;;;;;5069175;28;20044;-74
2023/01/23 00:34:14;;;;;;;6.47;1.98;;;;;;;;;;5068067;28;20048;-75
2023/01/23 00:36:44;;;;;;;3.90;1.67;;;;;;;;;;5067129;28;20052;-73
2023/01/23 00:39:20;;;;;;;2.97;1.75;;;;;;;;;;5050159;28;20049;-73
2023/01/23 00:41:51;;;;;;;3.55;1.60;;;;;;;;;;5069729;28;20067;-73
2023/01/23 00:44:22;;;;;;;3.22;1.77;;;;;;;;;;5066980;28;20525;-74
2023/01/23 00:46:52;;;;;;;3.60;1.90;;;;;;;;;;5068308;28;20048;-73
2023/01/23 00:49:25;;;;;;;5.57;1.85;;;;;;;;;;5066198;28;20067;-74
2023/01/23 00:51:56;;;;;;;3.78;1.67;;;;;;;;;;5068161;28;20051;-75
2023/01/23 00:54:29;;;;;;;3.00;1.80;;;;;;;;;;5065903;28;20430;-74
2023/01/23 00:56:59;;;;;;;2.75;1.65;;;;;;;;;;5068351;28;20048;-72
2023/01/23 00:59:31;;;;;;;2.30;1.85;;;;;;;;;;5066313;28;20581;-75
2023/01/23 01:02:02;;;;;;;3.03;1.70;;;;;;;;;;5064350;28;20052;-74
2023/01/23 01:04:33;;;;;;;2.42;1.80;;;;;;;;;;5066715;28;20045;-73
2023/01/23 01:07:04;;;;;;;4.00;1.90;;;;;;;;;;5065657;28;20055;-74
2023/01/23 01:09:34;;;;;;;4.47;1.88;;;;;;;;;;5067531;28;21152;-78
2023/01/23 01:12:05;;;;;;;3.22;1.90;;;;;;;;;;5068102;28;20048;-72
2023/01/23 01:14:38;;;;;;;5.85;1.83;;;;;;;;;;5066755;28;20060;-72
2023/01/23 01:17:08;;;;;;;2.65;2.00;;;;;;;;;;5065199;28;20079;-73
2023/01/23 01:19:38;;;;;;;3.60;1.90;;;;;;;;;;5067604;28;20045;-72
2023/01/23 01:22:09;;;;;;;3.25;1.85;;;;;;;;;;5067858;28;20048;-73
2023/01/23 01:24:41;;;;;;;3.95;1.65;;;;;;;;;;5067889;28;20056;-72
2023/01/23 01:27:12;;;;;;;3.30;1.70;;;;;;;;;;5067157;28;20033;-73
2023/01/23 01:29:43;;;;;;;3.13;1.85;;;;;;;;;;5065083;28;20048;-73
2023/01/23 01:32:15;;;;;;;2.90;1.85;;;;;;;;;;5067710;28;20040;-73
2023/01/23 01:34:47;;;;;;;2.13;1.70;;;;;;;;;;5065737;28;20060;-73
2023/01/23 01:37:21;;;;;;;3.30;1.65;;;;;;;;;;5065640;28;20524;-72
2023/01/23 01:39:51;;;;;;;3.40;1.83;;;;;;;;;;5065015;28;20410;-73
2023/01/23 01:42:27;;;;;;;3.05;1.80;;;;;;;;;;5066092;28;20045;-73
2023/01/23 01:45:01;;;;;;;3.60;1.92;;;;;;;;;;5065077;28;20052;-73
2023/01/23 01:47:32;;;;;;;3.88;1.70;;;;;;;;;;5065198;28;20044;-74
2023/01/23 01:50:05;;;;;;;4.20;1.95;;;;;;;;;;5067582;28;20052;-73
2023/01/23 01:52:35;;;;;;;3.70;1.83;;;;;;;;;;5067012;28;20045;-73
2023/01/23 01:55:06;;;;;;;3.80;1.70;;;;;;;;;;5065888;28;20049;-73
2023/01/23 01:57:47;;;;;;;4.22;1.73;;;;;;;;;;5065380;28;20703;-73
2023/01/23 02:00:19;;;;;;;2.97;2.00;;;;;;;;;;5065413;28;20052;-72
2023/01/23 02:02:57;;;;;;;4.55;2.05;;;;;;;;;;5064995;28;20052;-72
2023/01/23 02:05:49;;;;;;;4.65;2.15;;;;;;;;;;5064994;28;20590;-73
2023/01/23 02:08:51;;;;;;;7.75;2.35;;;;;;;;;;5062600;28;20051;-73
2023/01/23 02:11:22;;;;;;;3.35;1.80;;;;;;;;;;5061705;28;20411;-72
2023/01/23 02:13:54;;;;;;;5.07;1.83;;;;;;;;;;5065061;28;20048;-72
2023/01/23 02:16:34;;;;;;;5.28;1.65;;;;;;;;;;5065353;28;20056;-72
2023/01/23 02:19:32;;;;;;;3.58;1.77;;;;;;;;;;5063436;28;20443;-72
2023/01/23 02:22:13;;;;;;;3.90;1.90;;;;;;;;;;5063744;28;20053;-74
2023/01/23 02:25:10;;;;;;;2.85;1.83;;;;;;;;;;5064776;28;20495;-72
2023/01/23 02:27:40;;;;;;;3.28;1.73;;;;;;;;;;5064663;28;20052;-72
2023/01/23 02:30:12;;;;;;;7.85;2.00;;;;;;;;;;5064233;28;20674;-72
2023/01/23 02:32:44;;;;;;;7.82;2.25;;;;;;;;;;5064294;28;20053;-73
2023/01/23 02:35:25;;;;;;;4.63;2.05;;;;;;;;;;5064156;28;20530;-72
2023/01/23 02:38:04;;;;;;;2.92;1.92;;;;;;;;;;5064614;28;20048;-73
2023/01/23 02:40:39;;;;;;;4.50;1.80;;;;;;;;;;5064120;28;20418;-73
2023/01/23 02:43:20;;;;;;;4.18;1.73;;;;;;;;;;5063711;28;20045;-74
2023/01/23 02:45:57;;;;;;;5.60;2.00;;;;;;;;;;5064699;28;20076;-74
2023/01/23 02:48:28;;;;;;;5.93;2.08;;;;;;;;;;5065280;28;20063;-72
2023/01/23 02:51:01;;;;;;;2.72;1.88;;;;;;;;;;5064289;28;20061;-73
2023/01/23 02:53:32;;;;;;;3.70;1.98;;;;;;;;;;5065964;28;20395;-73
2023/01/23 02:56:02;;;;;;;5.07;1.63;;;;;;;;;;5066304;28;20411;-73
2023/01/23 03:01:22;;;;;;;3.47;1.75;;;;;;;;;;5064977;28;20060;-73
2023/01/23 03:03:55;;;;;;;5.20;2.22;;;;;;;;;;5066149;28;20047;-74
2023/01/23 03:06:25;;;;;;;2.55;1.90;;;;;;;;;;5063759;28;20052;-72
2023/01/23 03:08:56;;;;;;;2.58;1.83;;;;;;;;;;5064249;28;20045;-72
2023/01/23 03:11:28;;;;;;;4.53;1.92;;;;;;;;;;5065990;28;20139;-74
2023/01/23 03:14:02;;;;;;;8.70;2.17;;;;;;;;;;5065173;28;20049;-72
2023/01/23 03:16:33;;;;;;;2.88;2.28;;;;;;;;;;5064554;28;20057;-73
2023/01/23 03:19:08;;;;;;;4.65;2.30;;;;;;;;;;5064267;28;20068;-72
2023/01/23 03:21:40;;;;;;;4.82;2.13;;;;;;;;;;5049144;28;20503;-73
2023/01/23 03:24:13;;;;;;;2.85;2.00;;;;;;;;;;5069640;28;20060;-72
2023/01/23 03:26:45;;;;;;;2.92;2.10;;;;;;;;;;5070186;28;20036;-72
2023/01/23 03:32:09;;;;;;;4.43;2.13;;;;;;;;;;5070416;28;20525;-73
2023/01/23 03:34:41;;;;;;;5.78;2.35;;;;;;;;;;5067537;28;20906;-71
2023/01/23 03:37:12;;;;;;;4.82;2.10;;;;;;;;;;5067291;28;20056;-72
2023/01/23 03:42:34;;;;;;;3.35;1.85;;;;;;;;;;5070135;28;20506;-72
2023/01/23 03:45:33;;;;;;;6.32;2.42;;;;;;;;;;5067774;28;20056;-71
2023/01/23 03:48:04;;;;;;;3.53;1.92;;;;;;;;;;5067887;28;20048;-71
2023/01/23 03:50:35;;;;;;;5.10;2.45;;;;;;;;;;5067299;28;20067;-72
2023/01/23 03:53:07;;;;;;;5.20;2.20;;;;;;;;;;5069326;28;20067;-72
2023/01/23 03:55:38;;;;;;;3.65;2.20;;;;;;;;;;5066783;28;20052;-72
2023/01/23 03:58:08;;;;;;;4.15;2.13;;;;;;;;;;5067219;28;20418;-73
2023/01/23 04:00:41;;;;;;;3.83;2.05;;;;;;;;;;5067537;28;20052;-72
2023/01/23 04:03:11;;;;;;;3.60;2.10;;;;;;;;;;5067029;28;20071;-72
2023/01/23 04:05:43;;;;;;;8.18;2.40;;;;;;;;;;5069433;28;20063;-72
2023/01/23 04:08:14;;;;;;;5.45;2.42;;;;;;;;;;5050999;28;20067;-73
2023/01/23 04:10:44;;;;;;;3.90;2.00;;;;;;;;;;5067394;28;20059;-73
2023/01/23 04:13:17;;;;;;;5.75;2.10;;;;;;;;;;5066913;28;20059;-73
2023/01/23 04:15:48;;;;;;;3.38;2.22;;;;;;;;;;5067254;28;20052;-72
2023/01/23 04:18:18;;;;;;;7.10;2.05;;;;;;;;;;5066950;28;20065;-73
2023/01/23 04:20:48;;;;;;;7.65;2.20;;;;;;;;;;5066828;28;20053;-72
2023/01/23 04:23:18;;;;;;;3.50;2.30;;;;;;;;;;5066238;28;20057;-73
2023/01/23 04:25:50;;;;;;;4.93;2.17;;;;;;;;;;5067169;28;20057;-73
2023/01/23 04:28:22;;;;;;;3.45;2.35;;;;;;;;;;5066689;28;20049;-72
2023/01/23 04:30:54;;;;;;;4.18;2.40;;;;;;;;;;5067030;28;20057;-73
2023/01/23 04:33:34;;;;;;;4.55;2.30;;;;;;;;;;5052433;28;20055;-72
2023/01/23 04:36:06;;;;;;;5.65;2.85;;;;;;;;;;5067672;28;20061;-73
2023/01/23 04:38:37;;;;;;;5.93;2.40;;;;;;;;;;5066203;28;20048;-73
2023/01/23 04:41:23;;;;;;;3.75;2.47;;;;;;;;;;5066357;28;20060;-73
2023/01/23 04:44:19;;;;;;;2.55;2.20;;;;;;;;;;5066904;28;20399;-74
2023/01/23 04:47:09;;;;;;;8.07;2.25;;;;;;;;;;5069369;28;20056;-73
2023/01/23 04:49:42;;;;;;;5.82;1.95;;;;;;;;;;5050047;28;20057;-72
2023/01/23 04:52:12;;;;;;;8.63;2.20;;;;;;;;;;5067061;28;20045;-72
2023/01/23 04:54:51;;;;;;;7.25;2.78;;;;;;;;;;5066029;28;20501;-73
2023/01/23 04:57:23;;;;;;;4.90;2.30;;;;;;;;;;5050345;28;20056;-73
2023/01/23 05:00:06;;;;;;;4.70;2.50;;;;;;;;;;5066321;28;20048;-73
2023/01/23 05:02:36;;;;;;;5.13;2.78;;;;;;;;;;5066430;28;20063;-72
2023/01/23 05:05:07;;;;;;;8.02;2.40;;;;;;;;;;5066261;28;20053;-73
2023/01/23 05:07:40;;;;;;;8.40;2.50;;;;;;;;;;5065863;28;20052;-74
2023/01/23 05:10:15;;;;;;;3.72;2.40;;;;;;;;;;5066025;28;20063;-73
2023/01/23 05:12:47;;;;;;;8.98;2.58;;;;;;;;;;5065553;28;20075;-73
2023/01/23 05:15:44;;;;;;;6.57;2.60;;;;;;;;;;5065875;28;20404;-72
2023/01/23 05:18:14;;;;;;;5.78;2.33;;;;;;;;;;5049887;28;20059;-73
2023/01/23 05:20:48;;;;;;;4.18;2.58;;;;;;;;;;5065914;28;20049;-72
2023/01/23 05:23:20;;;;;;;6.57;2.25;;;;;;;;;;5066253;28;20054;-72
2023/01/23 05:25:51;;;;;;;4.22;2.30;;;;;;;;;;5066187;28;20053;-73
2023/01/23 05:28:24;;;;;;;4.60;2.33;;;;;;;;;;5065313;28;20052;-72
2023/01/23 05:30:56;;;;;;;6.32;2.50;;;;;;;;;;5065462;28;20040;-72
2023/01/23 05:33:39;;;;;;;4.40;2.22;;;;;;;;;;5051684;28;20055;-72
2023/01/23 05:36:10;;;;;;;4.07;2.67;;;;;;;;;;5065615;28;20048;-73
2023/01/23 05:38:41;;;;;;;6.45;2.60;;;;;;;;;;5064805;28;20064;-73
2023/01/23 05:41:13;;;;;;;5.35;2.88;;;;;;;;;;5065067;28;20060;-72
2023/01/23 05:44:03;;;;;;;3.85;2.65;;;;;;;;;;5065276;28;20056;-73
2023/01/23 05:46:47;;;;;;;4.72;2.50;;;;;;;;;;5064949;28;20067;-73
2023/01/23 05:49:18;;;;;;;6.57;2.90;;;;;;;;;;5064461;28;20059;-73
2023/01/23 05:51:49;;;;;;;4.07;2.63;;;;;;;;;;5065421;28;20055;-73
2023/01/23 05:54:19;;;;;;;5.10;2.72;;;;;;;;;;5065781;28;20059;-73
2023/01/23 05:56:51;;;;;;;6.05;2.72;;;;;;;;;;5065490;28;20056;-73
2023/01/23 05:59:54;;;;;;;6.00;2.45;;;;;;;;;;5045546;28;20388;-72
2023/01/23 06:02:46;;;;;;;5.25;2.47;;;;;;;;;;5071994;28;20060;-72
2023/01/23 06:05:46;;;;;;;3.03;2.47;;;;;;;;;;5064971;28;20067;-73
2023/01/23 06:08:19;;;;;;;3.80;2.50;;;;;;;;;;5064668;28;20057;-71
2023/01/23 06:10:50;;;;;;;3.88;2.60;;;;;;;;;;5064289;28;20048;-72
2023/01/23 06:13:21;;;;;;;2.72;2.30;;;;;;;;;;5064460;28;20049;-72
2023/01/23 06:15:53;;;;;;;4.55;2.80;;;;;;;;;;5065069;28;20048;-73
2023/01/23 06:18:23;;;;;;;4.82;3.08;;;;;;;;;;5066553;28;20503;-73
2023/01/23 06:21:00;;;;;;;7.65;3.00;;;;;;;;;;5064622;28;20044;-72
2023/01/23 06:23:31;;;;;;;7.43;2.95;;;;;;;;;;5064547;28;20052;-73
2023/01/23 06:26:02;;;;;;;4.70;2.88;;;;;;;;;;5067022;28;20518;-73
2023/01/23 06:28:35;;;;;;;9.80;2.95;;;;;;;;;;5064671;28;20052;-73
2023/01/23 06:31:09;;;;;;;7.05;2.67;;;;;;;;;;5063963;28;20423;-73
2023/01/23 06:33:53;;;;;;;4.13;2.85;;;;;;;;;;5064460;28;20055;-73
2023/01/23 06:36:30;;;;;;;4.93;2.80;;;;;;;;;;5064623;28;20511;-73
2023/01/23 06:39:00;;;;;;;12.93;3.60;;;;;;;;;;5064340;28;20561;-73
2023/01/23 06:41:38;;;;;;;6.03;2.63;;;;;;;;;;5064120;28;20056;-73
2023/01/23 06:44:14;;;;;;;5.25;3.20;;;;;;;;;;5064593;28;20049;-74
2023/01/23 06:46:44;;;;;;;4.85;3.10;;;;;;;;;;5065271;28;20053;-73
2023/01/23 06:49:16;;;;;;;5.53;2.70;;;;;;;;;;5064557;28;20383;-73
2023/01/23 06:51:48;;;;;;;4.10;2.85;;;;;;;;;;5064209;28;20053;-73
2023/01/23 06:54:19;;;;;;;4.10;2.72;;;;;;;;;;5064335;28;20550;-74
2023/01/23 06:56:50;;;;;;;3.80;2.83;;;;;;;;;;5067163;28;20043;-73
2023/01/23 06:59:20;;;;;;;4.82;3.05;;;;;;;;;;5068484;28;20629;-73
2023/01/23 07:01:50;;;;;;;5.43;2.88;;;;;;;;;;5068966;28;20057;-73
2023/01/23 07:04:26;;;;;;;5.35;3.28;;;;;;;;;;5067943;28;20059;-73
2023/01/23 07:06:58;;;;;;;4.38;2.83;;;;;;;;;;5068148;28;20063;-73
2023/01/23 07:09:28;;;;;;;9.88;3.40;;;;;;;;;;5069224;28;20065;-79
2023/01/23 07:12:07;;;;;;;3.72;2.80;;;;;;;;;;5068830;28;20052;-73
2023/01/23 07:14:40;;;;;;;4.03;3.10;;;;;;;;;;5068571;28;20064;-72
2023/01/23 07:17:12;;;;;;;4.25;3.30;;;;;;;;;;5068320;28;20060;-72
2023/01/23 07:19:43;;;;;;;6.28;3.45;;;;;;;;;;5069859;28;20049;-73
2023/01/23 07:22:21;;;;;;;5.60;3.40;;;;;;;;;;5067922;28;20059;-73
2023/01/23 07:24:53;;;;;;;11.23;3.33;;;;;;;;;;5069688;28;20051;-73
2023/01/23 07:27:25;;;;;;;8.10;3.67;;;;;;;;;;5069505;28;20048;-72
2023/01/23 07:29:55;;;;;;;6.38;3.55;;;;;;;;;;5069873;28;20053;-72
2023/01/23 07:32:26;;;;;;;4.57;3.88;;;;;;;;;;5069897;28;20052;-74
2023/01/23 07:35:24;;;;;;;4.30;3.25;;;;;;;;;;5068535;28;20438;-73
2023/01/23 07:37:55;;;;;;;5.85;3.25;;;;;;;;;;5069384;28;20048;-73
2023/01/23 07:40:25;;;;;;;7.60;3.45;;;;;;;;;;5070242;28;20047;-72
2023/01/23 07:42:56;;;;;;;7.28;3.45;;;;;;;;;;5067863;28;20056;-73
2023/01/23 07:45:27;;;;;;;6.50;3.53;;;;;;;;;;5069750;28;20052;-72
2023/01/23 07:47:57;;;;;;;8.05;3.40;;;;;;;;;;5069278;28;20067;-73
2023/01/23 07:50:29;;;;;;;3.97;3.20;;;;;;;;;;5069562;28;20052;-73
2023/01/23 07:52:58;;;;;;;4.32;3.28;;;;;;;;;;5068968;28;20052;-73
2023/01/23 07:55:29;;;;;;;11.70;4.43;;;;;;;;;;5069655;28;20431;-72
2023/01/23 07:57:59;;;;;;;6.03;3.22;;;;;;;;;;5069342;28;20415;-73
2023/01/23 08:00:38;;;;;;;10.20;3.92;;;;;;;;;;5067449;28;20048;-73
2023/01/23 08:03:08;;;;;;;8.65;4.35;;;;;;;;;;5069592;28;20045;-73
2023/01/23 08:05:39;;;;;;;6.32;4.20;;;;;;;;;;5069177;28;20048;-72
2023/01/23 08:08:12;;;;;;;5.40;3.13;;;;;;;;;;5067103;28;20058;-74
2023/01/23 08:10:43;;;;;;;6.82;3.92;;;;;;;;;;5069308;28;20064;-73
2023/01/23 08:13:14;;;;;;;6.05;3.40;;;;;;;;;;5069165;28;20044;-73
2023/01/23 08:15:45;;;;;;;6.68;3.53;;;;;;;;;;5068579;28;20040;-74
2023/01/23 08:18:16;;;;;;;8.50;4.18;;;;;;;;;;5068851;28;20569;-74
2023/01/23 08:20:53;;;;;;;8.07;3.60;;;;;;;;;;5067634;28;20055;-74
2023/01/23 08:23:30;;;;;;;5.18;3.97;;;;;;;;;;5068564;28;20049;-73
2023/01/23 08:26:01;;;;;;;;;;;;;;;;;;5068014;28;20048;-73
2023/01/23 08:28:32;;;;;;;9.00;3.67;;;;;;;;;;5069534;28;19939;-73
2023/01/23 08:31:06;;;;;;;6.00;4.03;;;;;;;;;;5069080;28;20495;-74
2023/01/23 08:33:38;;;;;;;9.10;4.38;;;;;;;;;;5068857;28;20431;-72
2023/01/23 08:36:17;;;;;;;7.68;4.38;;;;;;;;;;5068476;28;20047;-74
2023/01/23 08:38:48;;;;;;;9.80;4.05;;;;;;;;;;5068577;28;20072;-74
2023/01/23 08:41:18;;;;;;;10.00;4.07;;;;;;;;;;5068335;28;20045;-73
2023/01/23 08:43:51;;;;;;;7.78;4.25;;;;;;;;;;5068334;28;20499;-73
2023/01/23 08:46:20;;;;;;;6.38;3.88;;;;;;;;;;5067318;28;20094;-72
2023/01/23 08:48:51;;;;;;;6.68;3.92;;;;;;;;;;5068504;28;20053;-74
2023/01/23 08:51:24;;;;;;;12.02;4.38;;;;;;;;;;5068868;28;20491;-73
2023/01/23 08:53:55;;;;;;;10.13;4.15;;;;;;;;;;5068161;28;20052;-73
2023/01/23 08:56:25;;;;;;;6.97;4.45;;;;;;;;;;5068603;28;20488;-74
2023/01/23 08:58:56;;;;;;;8.77;3.88;;;;;;;;;;5067693;28;20075;-74
2023/01/23 09:01:27;;;;;;;6.80;4.35;;;;;;;;;;5067876;28;20668;-74
2023/01/23 09:03:58;;;;;;;6.25;4.00;;;;;;;;;;5068479;28;20044;-74
2023/01/23 09:06:28;;;;;;;5.15;3.70;;;;;;;;;;5068060;28;20491;-74
2023/01/23 09:08:58;;;;;;;3.70;3.22;;;;;;;;;;5067998;28;20044;-74
2023/01/23 09:11:29;;;;;;;8.55;3.67;;;;;;;;;;5068184;28;20048;-75
2023/01/23 09:14:00;;;;;;;11.15;4.70;;;;;;;;;;5065559;28;20546;-74
2023/01/23 09:16:30;;;;;;;5.45;4.15;;;;;;;;;;5067635;28;20045;-74
2023/01/23 09:19:00;;;;;;;6.13;4.55;;;;;;;;;;5067059;28;20055;-74
2023/01/23 09:21:30;;;;;;;10.02;4.22;;;;;;;;;;5067365;28;20048;-74
2023/01/23 09:24:02;;;;;;;5.25;4.07;;;;;;;;;;5067730;28;20085;-74
2023/01/23 09:26:35;;;;;;;6.75;4.40;;;;;;;;;;5067579;28;20048;-74
2023/01/23 09:29:05;;;;;;;8.25;4.75;;;;;;;;;;5067682;28;20414;-74
2023/01/23 09:31:36;;;;;;;8.02;4.47;;;;;;;;;;5067089;28;20048;-75
2023/01/23 09:34:07;;;;;;;8.73;5.03;;;;;;;;;;5067681;28;20052;-74
2023/01/23 09:36:38;;;;;;;7.65;4.30;;;;;;;;;;5066945;28;20048;-75
2023/01/23 09:39:12;;;;;;;8.45;4.28;;;;;;;;;;5065414;28;20044;-74
2023/01/23 09:41:44;;;;;;;10.70;4.15;;;;;;;;;;5067264;28;20048;-74
2023/01/23 09:44:20;;;;;;;7.15;4.75;;;;;;;;;;5067032;28;20052;-74
2023/01/23 09:46:52;;;;;;;9.10;4.40;;;;;;;;;;5066038;28;20483;-74
2023/01/23 09:49:29;;;;;;;5.80;4.20;;;;;;;;;;5067204;28;20495;-74
2023/01/23 09:52:00;;;;;;;10.88;4.55;;;;;;;;;;5067344;28;20411;-75
2023/01/23 09:54:47;;;;;;;6.68;4.47;;;;;;;;;;5067566;28;20415;-74
2023/01/23 09:57:29;;;;;;;8.90;5.30;;;;;;;;;;5067391;28;20472;-74
2023/01/23 10:00:10;;;;;;;17.67;8.75;;;;;;;;;;5066812;28;20049;-74
2023/01/23 10:02:43;;;;;;;8.30;4.93;;;;;;;;;;5067171;28;20049;-74
2023/01/23 10:05:19;;;;;;;6.45;3.83;;;;;;;;;;5067017;28;20055;-73
2023/01/23 10:08:31;;;;;;;5.95;3.15;;;;;;;;;;5066292;28;20060;-74
2023/01/23 10:11:22;;;;;;;6.82;3.97;;;;;;;;;;5078671;28;20407;-79
2023/01/23 10:14:06;;;;;;;8.20;3.28;;;;;;;;;;5087283;28;20051;-75
2023/01/23 10:17:05;;;;;;;5.22;2.92;;;;;;;;;;5086054;28;20525;-74
2023/01/23 10:19:43;;;;;;;4.70;3.25;;;;;;;;;;5080798;28;20067;-74
2023/01/23 10:22:33;;;;;;;5.03;2.90;;;;;;;;;;5086571;28;20047;-74
2023/01/23 10:25:20;;;;;;;5.82;2.78;;;;;;;;;;5086433;28;20048;-75
2023/01/23 10:27:57;;;;;;;6.57;3.00;;;;;;;;;;5086783;28;20055;-74
2023/01/23 10:30:37;;;;;;;7.28;2.88;;;;;;;;;;5086434;28;20407;-74
2023/01/23 10:33:16;;;;;;;6.55;2.58;;;;;;;;;;5086896;28;20098;-74
2023/01/23 10:35:52;;;;;;;6.85;2.53;;;;;;;;;;5086675;28;20047;-74
2023/01/23 10:39:15;;;;;;;12.43;2.90;;;;;;;;;;5086905;28;20048;-74
2023/01/23 10:41:46;;;;;;;5.40;2.60;;;;;;;;;;5055097;28;20060;-76
2023/01/23 10:44:29;;;;;;;11.30;3.33;;;;;;;;;;5086664;28;20051;-74
2023/01/23 10:47:03;;;;;;;13.75;3.55;;;;;;;;;;5084509;28;20052;-74
2023/01/23 10:49:44;;;;;;;6.57;2.25;;;;;;;;;;5084292;28;20415;-74
2023/01/23 10:52:43;;;;;;;4.57;2.05;;;;;;;;;;5086669;28;20087;-75
2023/01/23 10:55:27;;;;;;;7.25;2.47;;;;;;;;;;5085908;28;20059;-74
2023/01/23 10:58:03;;;;;;;7.95;2.55;;;;;;;;;;5086722;28;20067;-74
2023/01/23 11:00:36;;;;;;;3.95;2.20;;;;;;;;;;5086762;28;20059;-75
2023/01/23 11:03:35;;;;;;;5.45;1.90;;;;;;;;;;5085999;28;20047;-74
2023/01/23 11:06:09;;;;;;;7.35;2.42;;;;;;;;;;5084504;28;20056;-74
2023/01/23 11:09:01;;;;;;;11.23;2.42;;;;;;;;;;5085763;28;20055;-77
2023/01/23 11:11:33;;;;;;;5.65;3.45;;;;;;;;;;5086038;28;20498;-74
2023/01/23 11:14:20;;;;;;;5.40;2.10;;;;;;;;;;5086462;28;20051;-75
2023/01/23 11:17:13;;;;;;;7.75;2.20;;;;;;;;;;5086300;28;20043;-74
2023/01/23 11:19:46;;;;;;;2.58;1.80;;;;;;;;;;5086555;28;20048;-74
2023/01/23 11:22:32;;;;;;;3.63;1.92;;;;;;;;;;5086245;28;20044;-74
2023/01/23 11:25:26;;;;;;;7.40;2.03;;;;;;;;;;5086754;28;20059;-74
2023/01/23 11:28:04;;;;;;;8.30;1.88;;;;;;;;;;5085914;28;20051;-74
2023/01/23 11:30:49;;;;;;;5.18;2.10;;;;;;;;;;5085691;28;20050;-74
2023/01/23 11:33:53;;;;;;;4.30;2.05;;;;;;;;;;5085968;28;21010;-75
2023/01/23 11:36:29;;;;;;;4.57;1.75;;;;;;;;;;5086334;28;20044;-74
2023/01/23 11:39:15;;;;;;;7.88;2.00;;;;;;;;;;5086372;28;20055;-75
2023/01/23 11:41:47;;;;;;;6.78;2.00;;;;;;;;;;5085973;28;20044;-74
2023/01/23 11:44:21;;;;;;;4.82;1.90;;;;;;;;;;5089130;28;20406;-75
2023/01/23 11:47:07;;;;;;;3.10;1.52;;;;;;;;;;5090344;28;20491;-74
2023/01/23 11:49:59;;;;;;;2.45;1.80;;;;;;;;;;5090298;28;20052;-74
2023/01/23 11:52:37;;;;;;;5.68;2.00;;;;;;;;;;5089285;28;20455;-74
2023/01/23 11:55:32;;;;;;;2.50;1.50;;;;;;;;;;5089556;28;20499;-74
2023/01/23 11:58:20;;;;;;;2.05;1.65;;;;;;;;;;5088223;28;20036;-74
2023/01/23 12:01:12;;;;;;;2.38;1.45;;;;;;;;;;5089430;28;20044;-74
2023/01/23 12:04:06;;;;;;;4.35;1.70;;;;;;;;;;5087333;28;20438;-74
2023/01/23 12:07:05;;;;;;;6.75;1.70;;;;;;;;;;5089535;28;20491;-74
2023/01/23 12:10:09;;;;;;;5.03;1.55;;;;;;;;;;5089662;28;20048;-74
2023/01/23 12:12:51;;;;;;;4.55;1.50;;;;;;;;;;5089134;28;20051;-75
2023/01/23 12:15:44;;;;;;;4.40;1.80;;;;;;;;;;5089367;28;20407;-75
2023/01/23 12:18:37;;;;;;;3.70;1.60;;;;;;;;;;5082692;28;20825;-74
2023/01/23 12:21:26;;;;;;;2.80;1.58;;;;;;;;;;5087500;28;20044;-75
2023/01/23 12:24:37;;;;;;;5.30;1.52;;;;;;;;;;5088653;28;20519;-74
2023/01/23 12:27:44;;;;;;;3.83;1.70;;;;;;;;;;5089033;28;20055;-79
2023/01/23 12:30:40;;;;;;;2.65;1.50;;;;;;;;;;5089063;28;20071;-75
2023/01/23 12:33:19;;;;;;;36.38;17.92;;;;;;;;;;5088510;28;20414;-74
2023/01/23 12:36:26;;;;;;;3.80;1.70;;;;;;;;;;5088411;28;20379;-74
2023/01/23 12:39:12;;;;;;;2.45;1.45;;;;;;;;;;5088816;28;20518;-74
2023/01/23 12:41:58;;;;;;;2.42;1.33;;;;;;;;;;5089619;28;20051;-74
2023/01/23 12:44:40;;;;;;;3.45;1.67;;;;;;;;;;5088654;28;20047;-75
2023/01/23 12:47:20;;;;;;;9.40;2.45;;;;;;;;;;5088646;28;20044;-75
2023/01/23 12:49:57;;;;;;;1.70;1.40;;;;;;;;;;5088061;28;20052;-76
2023/01/23 12:52:33;;;;;;;3.15;1.50;;;;;;;;;;5070479;28;20052;-74
2023/01/23 12:55:35;;;;;;;5.50;1.50;;;;;;;;;;5088132;28;20047;-82
2023/01/23 12:58:11;;;;;;;3.63;1.50;;;;;;;;;;5073026;28;20059;-75
2023/01/23 13:00:52;;;;;;;;;;;;;;;;;;5089236;28;20055;-74
2023/01/23 13:03:44;;;;;;;5.32;1.50;;;;;;;;;;5087267;28;19924;-74
2023/01/23 13:06:36;;;;;;;3.08;1.60;;;;;;;;;;5087925;28;20048;-74
2023/01/23 13:09:45;;;;;;;4.53;1.65;;;;;;;;;;5088283;28;20044;-74
2023/01/23 13:12:23;;;;;;;3.22;1.30;;;;;;;;;;5088147;28;20059;-75
2023/01/23 13:15:16;;;;;;;3.35;1.42;;;;;;;;;;5087863;28;20063;-77
2023/01/23 13:17:58;;;;;;;2.50;1.40;;;;;;;;;;5086446;28;20052;-74
2023/01/23 13:23:38;;;;;;;4.25;1.23;;;;;;;;;;5087847;28;20434;-75
2023/01/23 13:26:21;;;;;;;2.50;1.27;;;;;;;;;;5087662;28;20055;-74
2023/01/23 13:29:00;;;;;;;4.53;1.23;;;;;;;;;;5087993;28;20054;-75
2023/01/23 13:31:39;;;;;;;4.97;1.48;;;;;;;;;;5086040;28;20051;-75
2023/01/23 13:34:15;;;;;;;1.60;1.15;;;;;;;;;;5088015;28;20044;-75
2023/01/23 13:36:51;;;;;;;2.47;1.10;;;;;;;;;;5087559;28;20047;-74
2023/01/23 13:39:26;;;;;;;0.90;0.90;;;;;;;;;;5088042;28;20408;-73
2023/01/23 13:42:13;;;;;;;3.00;1.10;;;;;;;;;;5087706;28;20075;-74
2023/01/23 13:45:19;;;;;;;6.47;1.40;;;;;;;;;;5087228;28;20055;-78
2023/01/23 13:51:49;;;;;;;2.88;0.90;;;;;;;;;;5013422;28;20060;-75
2023/01/23 13:57:36;;;;;;;1.50;1.20;;;;;;;;;;4890041;29;20068;-75
2023/01/23 14:00:21;;;;;;;4.97;4.35;;;;;;;;;;4798042;29;20070;-82
2023/01/23 14:06:33;;;;;;;2.25;1.15;;;;;;;;;;4811386;29;20060;-75
2023/01/23 14:09:28;;;;;;;3.28;0.90;;;;;;;;;;4797587;29;20074;-75
2023/01/23 14:12:12;;;;;;;3.28;1.15;;;;;;;;;;4842807;29;20063;-76
2023/01/23 14:18:03;;;;;;;1.70;0.88;;;;;;;;;;4761345;30;20064;-78
2023/01/23 14:20:47;;;;;;;2.15;1.00;;;;;;;;;;4719814;30;20055;-75
2023/01/23 14:23:32;;;;;;;5.15;1.15;;;;;;;;;;4768464;29;20058;-75
2023/01/23 14:26:07;;;;;;;5.07;1.27;;;;;;;;;;4834103;29;20061;-74
2023/01/23 14:28:38;;;;;;;3.38;1.38;;;;;;;;;;4893912;28;20061;-75
2023/01/23 14:31:24;;;;;;;3.20;1.20;;;;;;;;;;4991844;28;20060;-75
2023/01/23 14:34:00;;;;;;;3.47;1.20;;;;;;;;;;5086688;28;20048;-75
2023/01/23 14:36:46;;;;;;;3.60;1.10;;;;;;;;;;5086736;28;20044;-76
2023/01/23 14:39:26;;;;;;;4.03;1.40;;;;;;;;;;5086951;28;20131;-75
2023/01/23 14:41:59;;;;;;;6.43;3.80;;;;;;;;;;5086511;28;20063;-75
2023/01/23 14:44:34;;;;;;;103.10;4.38;;;;;;;;;;5087302;28;20459;-76
2023/01/23 14:47:06;;;;;;;133.73;5.95;;;;;;;;;;5086475;28;20851;-75
2023/01/23 14:49:38;;;;;;;4.45;1.20;;;;;;;;;;5087432;28;20048;-75
2023/01/23 14:52:21;;;;;;;2.45;1.05;;;;;;;;;;5086459;28;20051;-75
2023/01/23 14:54:52;;;;;;;1.17;0.98;;;;;;;;;;5085340;28;20040;-76
2023/01/23 14:57:26;;;;;;;1.38;0.98;;;;;;;;;;5086816;28;20084;-78
2023/01/23 14:59:58;;;;;;;2.92;1.10;;;;;;;;;;5086381;28;20071;-76
2023/01/23 15:02:35;;;;;;;3.08;1.00;;;;;;;;;;5086583;28;20048;-76
2023/01/23 15:05:19;;;;;;;2.55;1.00;;;;;;;;;;5086333;28;20044;-75
2023/01/23 15:08:01;;;;;;;5.47;1.17;;;;;;;;;;5086760;28;20059;-75
2023/01/23 15:10:41;;;;;;;4.97;1.50;;;;;;;;;;5085967;28;20043;-78
2023/01/23 15:13:20;;;;;;;3.25;1.40;;;;;;;;;;5086382;28;20098;-75
2023/01/23 15:15:57;;;;;;;2.83;1.50;;;;;;;;;;5086988;28;20395;-75
2023/01/23 15:18:30;;;;;;;4.03;1.48;;;;;;;;;;5089982;28;20044;-76
2023/01/23 15:21:04;;;;;;;73.25;5.60;;;;;;;;;;5090665;28;20056;-76
2023/01/23 15:23:39;;;;;;;4.75;1.42;;;;;;;;;;5071974;28;20092;-74
2023/01/23 15:26:22;;;;;;;2.95;1.25;;;;;;;;;;5090098;28;20041;-77
2023/01/23 15:28:56;;;;;;;3.90;1.20;;;;;;;;;;5089910;28;20048;-76
2023/01/23 15:31:36;;;;;;;7.78;1.70;;;;;;;;;;5090201;28;20044;-75
2023/01/23 15:34:15;;;;;;;2.50;1.33;;;;;;;;;;5089572;28;20059;-75
2023/01/23 15:36:50;;;;;;;4.20;1.40;;;;;;;;;;5090022;28;20062;-76
2023/01/23 15:39:25;;;;;;;4.10;1.27;;;;;;;;;;5090196;28;20051;-76
2023/01/23 15:42:02;;;;;;;4.28;1.40;;;;;;;;;;5090541;28;20745;-75
2023/01/23 15:44:33;;;;;;;4.32;1.40;;;;;;;;;;5089529;28;20070;-75
2023/01/23 15:47:05;;;;;;;3.15;1.40;;;;;;;;;;5090453;28;20048;-76
2023/01/23 15:49:36;;;;;;;4.22;1.60;;;;;;;;;;5090049;28;20052;-76
2023/01/23 15:52:21;;;;;;;3.38;1.42;;;;;;;;;;5088607;28;20560;-76
2023/01/23 15:54:55;;;;;;;3.88;1.48;;;;;;;;;;5089818;28;20040;-75
2023/01/23 15:57:25;;;;;;;;;;;;;;;;;;5090290;28;20059;-77
2023/01/23 15:59:55;;;;;;;6.63;1.70;;;;;;;;;;5089391;28;19931;-76
2023/01/23 16:02:25;;;;;;;3.85;1.70;;;;;;;;;;5088297;28;20064;-76
2023/01/23 16:05:02;;;;;;;2.03;1.50;;;;;;;;;;5089514;28;20050;-81
2023/01/23 16:07:35;;;;;;;2.15;1.38;;;;;;;;;;5089671;28;20048;-75